Time;durP1;ratioP1;P1;durP2;ratioP2;P2;SDS_P1;SDS_P2;PMS_P1;PMS_P2;Temp;Humidity;BMP_temperature;BMP_pressure;BME280_temperature;BME280_humidity;BME280_pressure;Samples;Min_cycle;Max_cycle;Signal;HPM_P1;HPM_P2
2021/08/14 00:01:54;;;;;;;17.42;5.03;;;;;;;;;;4346472;32;20608;-79
2021/08/14 00:04:19;;;;;;;21.20;5.30;;;;;;;;;;4344472;33;20163;-79
2021/08/14 00:06:45;;;;;;;18.87;5.20;;;;;;;;;;4336481;33;20713;-80
2021/08/14 00:09:10;;;;;;;24.52;5.53;;;;;;;;;;4341216;33;20561;-79
2021/08/14 00:11:35;;;;;;;20.60;4.87;;;;;;;;;;4341515;33;20241;-79
2021/08/14 00:14:01;;;;;;;23.65;5.45;;;;;;;;;;4341317;33;20240;-80
2021/08/14 00:16:26;;;;;;;13.52;5.50;;;;;;;;;;4341618;33;20152;-79
2021/08/14 00:18:52;;;;;;;17.95;5.10;;;;;;;;;;4341153;33;20235;-79
2021/08/14 00:21:29;;;;;;;19.48;5.15;;;;;;;;;;4343334;33;20155;-79
2021/08/14 00:23:57;;;;;;;20.67;5.97;;;;;;;;;;4344466;33;20230;-79
2021/08/14 00:26:23;;;;;;;21.17;5.90;;;;;;;;;;4343476;33;20152;-79
2021/08/14 00:28:48;;;;;;;24.77;5.80;;;;;;;;;;4343725;33;20186;-79
2021/08/14 00:31:18;;;;;;;18.40;5.97;;;;;;;;;;4344296;32;20190;-79
2021/08/14 00:33:43;;;;;;;19.40;5.43;;;;;;;;;;4333393;33;20148;-79
2021/08/14 00:36:09;;;;;;;19.98;5.50;;;;;;;;;;4331441;33;20163;-79
2021/08/14 00:38:34;;;;;;;13.60;5.15;;;;;;;;;;4331786;33;20188;-79
2021/08/14 00:41:02;;;;;;;21.20;6.12;;;;;;;;;;4331835;33;20147;-79
2021/08/14 00:43:30;;;;;;;22.77;6.85;;;;;;;;;;4331799;33;20167;-79
2021/08/14 00:46:18;;;;;;;22.67;6.07;;;;;;;;;;4331733;33;20184;-79
2021/08/14 00:48:44;;;;;;;17.30;5.40;;;;;;;;;;4332383;33;20597;-79
2021/08/14 00:51:09;;;;;;;20.33;6.35;;;;;;;;;;4343601;33;20171;-79
2021/08/14 00:53:35;;;;;;;19.55;5.90;;;;;;;;;;4331509;33;20190;-80
2021/08/14 00:56:00;;;;;;;24.02;6.40;;;;;;;;;;4331118;33;20172;-80
2021/08/14 00:58:26;;;;;;;21.60;5.97;;;;;;;;;;4332240;33;20589;-79
2021/08/14 01:00:51;;;;;;;17.48;5.87;;;;;;;;;;4331062;33;20167;-80
2021/08/14 01:03:16;;;;;;;18.33;5.93;;;;;;;;;;4331433;33;20241;-79
2021/08/14 01:05:45;;;;;;;18.65;6.00;;;;;;;;;;4332492;33;20159;-80
2021/08/14 01:08:25;;;;;;;20.33;5.90;;;;;;;;;;4332757;33;20160;-79
2021/08/14 01:10:50;;;;;;;24.15;6.95;;;;;;;;;;4345734;33;20159;-79
2021/08/14 01:13:15;;;;;;;25.80;6.18;;;;;;;;;;4358350;32;20721;-79
2021/08/14 01:15:48;;;;;;;19.25;6.10;;;;;;;;;;4345990;33;20234;-79
2021/08/14 01:18:13;;;;;;;20.10;5.70;;;;;;;;;;4347310;32;20209;-79
2021/08/14 01:20:40;;;;;;;22.35;6.10;;;;;;;;;;4356683;32;20154;-79
2021/08/14 01:23:05;;;;;;;29.48;6.85;;;;;;;;;;4347139;32;20136;-79
2021/08/14 01:25:30;;;;;;;22.02;6.40;;;;;;;;;;4345461;33;20193;-79
2021/08/14 01:27:57;;;;;;;19.70;6.40;;;;;;;;;;4345385;33;20213;-80
2021/08/14 01:30:24;;;;;;;18.85;6.47;;;;;;;;;;4345299;33;20151;-80
2021/08/14 01:32:49;;;;;;;23.92;6.30;;;;;;;;;;4346495;33;20190;-79
2021/08/14 01:35:14;;;;;;;22.40;5.93;;;;;;;;;;4346553;32;20148;-80
2021/08/14 01:37:49;;;;;;;22.02;6.32;;;;;;;;;;4345521;33;20243;-80
2021/08/14 01:40:15;;;;;;;26.35;6.90;;;;;;;;;;4355344;33;20182;-79
2021/08/14 01:42:50;;;;;;;22.05;5.72;;;;;;;;;;4331464;33;20128;-79
2021/08/14 01:45:19;;;;;;;16.35;5.70;;;;;;;;;;4330967;33;20213;-79
2021/08/14 01:47:44;;;;;;;21.67;6.55;;;;;;;;;;4342018;33;20148;-79
2021/08/14 01:50:12;;;;;;;20.98;6.35;;;;;;;;;;4357117;32;20190;-79
2021/08/14 01:52:40;;;;;;;23.42;5.95;;;;;;;;;;4361720;32;20151;-79
2021/08/14 01:55:06;;;;;;;22.10;6.00;;;;;;;;;;4347264;33;20213;-79
2021/08/14 01:57:40;;;;;;;22.50;6.78;;;;;;;;;;4360409;32;20225;-79
2021/08/14 02:00:06;;;;;;;27.02;7.35;;;;;;;;;;4348321;32;20166;-78
2021/08/14 02:02:31;;;;;;;28.48;8.25;;;;;;;;;;4332609;33;20611;-78
2021/08/14 02:04:56;;;;;;;18.33;6.53;;;;;;;;;;4346394;33;20462;-79
2021/08/14 02:07:22;;;;;;;33.58;8.07;;;;;;;;;;4344827;33;20237;-78
2021/08/14 02:09:47;;;;;;;23.35;6.97;;;;;;;;;;4343368;33;20159;-78
2021/08/14 02:12:21;;;;;;;22.67;6.82;;;;;;;;;;4347643;33;20167;-79
2021/08/14 02:14:49;;;;;;;24.10;7.12;;;;;;;;;;4347707;32;20206;-79
2021/08/14 02:17:14;;;;;;;28.10;7.28;;;;;;;;;;4347252;33;20156;-78
2021/08/14 02:19:45;;;;;;;25.83;7.70;;;;;;;;;;4345300;33;20225;-78
2021/08/14 02:22:10;;;;;;;24.25;6.68;;;;;;;;;;4332545;33;20227;-79
2021/08/14 02:24:36;;;;;;;21.42;6.72;;;;;;;;;;4333428;33;20190;-79
2021/08/14 02:27:03;;;;;;;22.98;7.35;;;;;;;;;;4344934;33;20155;-79
2021/08/14 02:29:29;;;;;;;29.17;7.32;;;;;;;;;;4332509;33;20200;-79
2021/08/14 02:31:54;;;;;;;28.58;6.93;;;;;;;;;;4332113;33;20159;-79
2021/08/14 02:34:19;;;;;;;25.45;7.78;;;;;;;;;;4345787;33;20155;-79
2021/08/14 02:36:44;;;;;;;23.98;7.40;;;;;;;;;;4332162;33;20230;-79
2021/08/14 02:39:10;;;;;;;28.30;8.23;;;;;;;;;;4350718;33;20193;-79
2021/08/14 02:41:35;;;;;;;18.17;7.45;;;;;;;;;;4347197;33;20612;-79
2021/08/14 02:44:03;;;;;;;23.75;7.05;;;;;;;;;;4359199;32;20726;-78
2021/08/14 02:46:28;;;;;;;22.02;7.07;;;;;;;;;;4360660;33;20241;-79
2021/08/14 02:48:54;;;;;;;24.42;6.53;;;;;;;;;;4344270;33;20550;-78
2021/08/14 02:51:23;;;;;;;23.23;6.78;;;;;;;;;;4344740;33;20167;-79
2021/08/14 02:53:48;;;;;;;17.40;6.57;;;;;;;;;;4344241;33;20218;-79
2021/08/14 02:56:13;;;;;;;31.35;7.28;;;;;;;;;;4344279;33;20159;-78
2021/08/14 02:58:38;;;;;;;18.87;6.87;;;;;;;;;;4347973;33;20494;-79
2021/08/14 03:01:06;;;;;;;24.73;6.82;;;;;;;;;;4341231;33;20163;-78
2021/08/14 03:03:32;;;;;;;30.35;7.87;;;;;;;;;;4344130;33;20183;-79
2021/08/14 03:06:00;;;;;;;25.27;6.90;;;;;;;;;;4331820;33;20219;-78
2021/08/14 03:08:28;;;;;;;24.50;6.60;;;;;;;;;;4358256;32;20146;-78
2021/08/14 03:10:53;;;;;;;20.67;6.35;;;;;;;;;;4360549;33;20144;-79
2021/08/14 03:13:39;;;;;;;21.75;6.25;;;;;;;;;;4346761;33;20277;-79
2021/08/14 03:16:04;;;;;;;26.08;6.32;;;;;;;;;;4360389;33;20182;-78
2021/08/14 03:18:29;;;;;;;21.00;6.80;;;;;;;;;;4346789;33;20217;-78
2021/08/14 03:20:55;;;;;;;24.45;6.82;;;;;;;;;;4346751;33;20162;-79
2021/08/14 03:23:20;;;;;;;22.87;6.28;;;;;;;;;;4346487;33;20222;-78
2021/08/14 03:25:45;;;;;;;21.48;6.78;;;;;;;;;;4346955;33;20206;-79
2021/08/14 03:28:11;;;;;;;15.85;6.25;;;;;;;;;;4346866;33;20159;-78
2021/08/14 03:30:39;;;;;;;20.02;6.00;;;;;;;;;;4346799;33;20155;-78
2021/08/14 03:33:04;;;;;;;18.45;5.80;;;;;;;;;;4346885;33;20159;-81
2021/08/14 03:35:29;;;;;;;19.92;6.68;;;;;;;;;;4346437;33;20619;-81
2021/08/14 03:37:55;;;;;;;20.90;6.65;;;;;;;;;;4347080;33;20162;-81
2021/08/14 03:40:20;;;;;;;21.15;6.53;;;;;;;;;;4332340;33;20163;-81
2021/08/14 03:42:45;;;;;;;21.05;6.28;;;;;;;;;;4331730;33;20195;-80
2021/08/14 03:45:11;;;;;;;22.92;7.05;;;;;;;;;;4331658;33;20171;-80
2021/08/14 03:47:39;;;;;;;18.23;6.30;;;;;;;;;;4345378;33;20135;-80
2021/08/14 03:50:07;;;;;;;22.45;6.65;;;;;;;;;;4331791;33;20201;-79
2021/08/14 03:52:34;;;;;;;22.87;6.80;;;;;;;;;;4331475;33;20213;-80
2021/08/14 03:55:02;;;;;;;23.80;6.78;;;;;;;;;;4333324;33;20182;-79
2021/08/14 03:57:27;;;;;;;28.65;6.60;;;;;;;;;;4334416;33;20179;-80
2021/08/14 03:59:53;;;;;;;26.55;7.12;;;;;;;;;;4334481;33;20210;-79
2021/08/14 04:02:18;;;;;;;17.83;6.43;;;;;;;;;;4347718;33;20563;-79
2021/08/14 04:04:43;;;;;;;23.95;6.32;;;;;;;;;;4334904;33;20206;-79
2021/08/14 04:07:11;;;;;;;28.38;6.78;;;;;;;;;;4334220;33;20159;-79
2021/08/14 04:09:37;;;;;;;19.33;6.70;;;;;;;;;;4344935;33;20255;-79
2021/08/14 04:12:02;;;;;;;21.98;7.20;;;;;;;;;;4361647;32;20163;-79
2021/08/14 04:14:27;;;;;;;19.02;6.75;;;;;;;;;;4348841;33;20546;-79
2021/08/14 04:17:00;;;;;;;24.20;6.97;;;;;;;;;;4348783;33;20527;-79
2021/08/14 04:19:25;;;;;;;23.27;6.85;;;;;;;;;;4349110;33;20159;-79
2021/08/14 04:21:50;;;;;;;23.30;7.90;;;;;;;;;;4348713;32;20185;-79
2021/08/14 04:24:25;;;;;;;25.65;8.10;;;;;;;;;;4348297;33;20210;-79
2021/08/14 04:26:51;;;;;;;24.48;7.22;;;;;;;;;;4337430;33;20215;-79
2021/08/14 04:29:17;;;;;;;21.12;7.75;;;;;;;;;;4346041;33;20358;-79
2021/08/14 04:31:42;;;;;;;27.55;7.65;;;;;;;;;;4334121;33;20168;-79
2021/08/14 04:34:09;;;;;;;21.67;7.35;;;;;;;;;;4355415;32;20628;-79
2021/08/14 04:36:35;;;;;;;30.98;8.27;;;;;;;;;;4348714;33;20229;-79
2021/08/14 04:39:00;;;;;;;27.70;8.00;;;;;;;;;;4341416;33;20293;-79
2021/08/14 04:41:25;;;;;;;30.33;8.15;;;;;;;;;;4334014;33;20202;-79
2021/08/14 04:43:50;;;;;;;26.50;8.90;;;;;;;;;;4333592;33;20226;-79
2021/08/14 04:46:16;;;;;;;23.95;8.57;;;;;;;;;;4341264;33;20293;-79
2021/08/14 04:48:41;;;;;;;28.50;9.10;;;;;;;;;;4348616;33;20171;-79
2021/08/14 04:51:07;;;;;;;28.65;9.05;;;;;;;;;;4361573;32;20564;-79
2021/08/14 04:53:33;;;;;;;24.60;8.55;;;;;;;;;;4360675;32;20162;-79
2021/08/14 04:55:59;;;;;;;31.27;9.40;;;;;;;;;;4360665;32;20158;-79
2021/08/14 04:58:24;;;;;;;28.12;9.02;;;;;;;;;;4360552;32;20159;-79
2021/08/14 05:00:49;;;;;;;31.77;8.98;;;;;;;;;;4360830;32;20185;-79
2021/08/14 05:03:17;;;;;;;22.70;8.85;;;;;;;;;;4348152;33;20217;-79
2021/08/14 05:05:43;;;;;;;21.62;8.35;;;;;;;;;;4360436;32;20213;-81
2021/08/14 05:08:09;;;;;;;24.30;9.23;;;;;;;;;;4348345;33;20167;-80
2021/08/14 05:10:34;;;;;;;24.23;9.00;;;;;;;;;;4348007;33;20289;-80
2021/08/14 05:13:00;;;;;;;26.85;8.63;;;;;;;;;;4348677;33;20155;-80
2021/08/14 05:15:25;;;;;;;27.95;9.52;;;;;;;;;;4361769;32;20202;-79
2021/08/14 05:17:50;;;;;;;32.70;10.25;;;;;;;;;;4347924;33;20162;-79
2021/08/14 05:20:15;;;;;;;29.80;9.48;;;;;;;;;;4343001;33;20167;-78
2021/08/14 05:22:41;;;;;;;23.40;9.55;;;;;;;;;;4347742;33;20170;-79
2021/08/14 05:25:06;;;;;;;27.62;9.68;;;;;;;;;;4347526;33;20201;-78
2021/08/14 05:27:31;;;;;;;28.23;8.85;;;;;;;;;;4348284;33;20189;-79
2021/08/14 05:29:57;;;;;;;25.62;8.70;;;;;;;;;;4348027;33;20249;-78
2021/08/14 05:32:22;;;;;;;27.92;9.05;;;;;;;;;;4347890;32;20532;-78
2021/08/14 05:34:47;;;;;;;24.98;8.90;;;;;;;;;;4348891;33;20163;-76
2021/08/14 05:37:14;;;;;;;29.00;9.63;;;;;;;;;;4348718;33;20213;-80
2021/08/14 05:39:39;;;;;;;21.37;9.32;;;;;;;;;;4348067;33;20585;-80
2021/08/14 05:42:05;;;;;;;26.77;9.10;;;;;;;;;;4341396;33;20163;-80
2021/08/14 05:44:30;;;;;;;22.73;8.38;;;;;;;;;;4333176;33;20684;-79
2021/08/14 05:46:55;;;;;;;21.17;9.27;;;;;;;;;;4345491;33;20195;-79
2021/08/14 05:49:21;;;;;;;26.10;10.18;;;;;;;;;;4346869;33;20151;-80
2021/08/14 05:51:46;;;;;;;33.20;9.70;;;;;;;;;;4341057;33;20222;-81
2021/08/14 05:54:11;;;;;;;28.85;10.02;;;;;;;;;;4357189;32;20529;-80
2021/08/14 05:56:40;;;;;;;31.87;11.20;;;;;;;;;;4345645;33;20178;-80
2021/08/14 05:59:06;;;;;;;34.88;10.82;;;;;;;;;;4344892;33;20590;-79
2021/08/14 06:01:31;;;;;;;36.53;10.55;;;;;;;;;;4345090;33;20185;-79
2021/08/14 06:03:56;;;;;;;48.47;12.65;;;;;;;;;;4345287;33;20190;-78
2021/08/14 06:06:24;;;;;;;47.67;13.07;;;;;;;;;;4345151;33;20520;-78
2021/08/14 06:08:49;;;;;;;50.10;14.43;;;;;;;;;;4346090;32;20190;-79
2021/08/14 06:11:14;;;;;;;55.03;14.87;;;;;;;;;;4344935;33;20652;-79
2021/08/14 06:13:40;;;;;;;67.22;16.55;;;;;;;;;;4344657;33;20174;-80
2021/08/14 06:16:08;;;;;;;67.15;16.55;;;;;;;;;;4344624;33;20190;-79
2021/08/14 06:18:40;;;;;;;68.47;17.55;;;;;;;;;;4344645;33;20182;-80
2021/08/14 06:21:06;;;;;;;47.53;15.07;;;;;;;;;;4344633;33;20205;-78
2021/08/14 06:23:31;;;;;;;65.65;15.98;;;;;;;;;;4345329;33;20163;-79
2021/08/14 06:25:56;;;;;;;60.67;17.02;;;;;;;;;;4343338;33;20163;-79
2021/08/14 06:28:24;;;;;;;62.20;17.15;;;;;;;;;;4346022;33;20162;-79
2021/08/14 06:30:50;;;;;;;62.80;15.60;;;;;;;;;;4344887;33;20152;-79
2021/08/14 06:33:15;;;;;;;60.25;17.52;;;;;;;;;;4344810;33;20194;-79
2021/08/14 06:35:40;;;;;;;69.78;16.23;;;;;;;;;;4344394;33;20159;-80
2021/08/14 06:38:08;;;;;;;71.43;17.75;;;;;;;;;;4356158;32;20184;-79
2021/08/14 06:40:34;;;;;;;63.65;17.48;;;;;;;;;;4344687;33;20160;-79
2021/08/14 06:42:59;;;;;;;63.17;17.55;;;;;;;;;;4344397;33;20536;-79
2021/08/14 06:45:24;;;;;;;60.45;17.35;;;;;;;;;;4344278;33;20545;-79
2021/08/14 06:47:50;;;;;;;54.60;18.27;;;;;;;;;;4344536;33;20179;-79
2021/08/14 06:50:16;;;;;;;68.57;18.73;;;;;;;;;;4346020;33;20159;-78
2021/08/14 06:52:44;;;;;;;72.22;21.37;;;;;;;;;;4343431;33;20159;-80
2021/08/14 06:55:09;;;;;;;68.12;18.95;;;;;;;;;;4331846;33;20241;-78
2021/08/14 06:57:35;;;;;;;63.72;19.80;;;;;;;;;;4344229;33;20645;-79
2021/08/14 07:00:00;;;;;;;58.72;19.10;;;;;;;;;;4345016;33;20323;-78
2021/08/14 07:02:26;;;;;;;63.30;18.48;;;;;;;;;;4344372;33;20202;-79
2021/08/14 07:04:51;;;;;;;64.10;18.98;;;;;;;;;;4344394;33;20155;-81
2021/08/14 07:07:17;;;;;;;46.20;16.98;;;;;;;;;;4345507;33;20171;-78
2021/08/14 07:10:18;;;;;;;54.40;19.40;;;;;;;;;;4344333;33;20162;-80
2021/08/14 07:12:37;;;;;;;50.42;18.02;;;;;;;;;;4342756;33;20221;-79
2021/08/14 07:15:02;;;;;;;46.60;17.60;;;;;;;;;;4344644;33;20241;-79
2021/08/14 07:17:28;;;;;;;51.83;17.67;;;;;;;;;;4344009;33;20274;-80
2021/08/14 07:19:53;;;;;;;49.08;17.77;;;;;;;;;;4344374;33;20170;-78
2021/08/14 07:22:21;;;;;;;49.95;20.02;;;;;;;;;;4357260;33;20225;-78
2021/08/14 07:24:47;;;;;;;46.47;18.48;;;;;;;;;;4359174;33;20186;-78
2021/08/14 07:27:12;;;;;;;41.00;18.10;;;;;;;;;;4359246;33;20493;-80
2021/08/14 07:29:37;;;;;;;46.47;21.17;;;;;;;;;;4360152;32;20592;-78
2021/08/14 07:32:03;;;;;;;56.88;19.37;;;;;;;;;;4361908;32;20162;-79
2021/08/14 07:34:33;;;;;;;46.37;19.62;;;;;;;;;;4361718;32;20580;-81
2021/08/14 07:36:59;;;;;;;48.33;19.15;;;;;;;;;;4362028;32;20155;-79
2021/08/14 07:39:24;;;;;;;43.87;17.73;;;;;;;;;;4361764;32;20202;-79
2021/08/14 07:41:49;;;;;;;46.58;19.33;;;;;;;;;;4362360;32;20192;-78
2021/08/14 07:44:14;;;;;;;47.13;18.65;;;;;;;;;;4362102;33;20159;-79
2021/08/14 07:46:43;;;;;;;43.42;17.23;;;;;;;;;;4362207;32;20574;-79
2021/08/14 07:49:08;;;;;;;48.45;20.45;;;;;;;;;;4348778;32;20221;-78
2021/08/14 07:51:33;;;;;;;46.42;17.52;;;;;;;;;;4358804;32;20170;-80
2021/08/14 07:53:58;;;;;;;37.85;16.95;;;;;;;;;;4347346;33;20164;-80
2021/08/14 07:56:24;;;;;;;46.15;16.92;;;;;;;;;;4347985;33;20486;-79
2021/08/14 07:58:49;;;;;;;41.95;16.77;;;;;;;;;;4347283;33;20152;-80
2021/08/14 08:01:15;;;;;;;41.63;17.55;;;;;;;;;;4359176;32;20155;-80
2021/08/14 08:03:41;;;;;;;38.90;16.50;;;;;;;;;;4347755;32;20162;-80
2021/08/14 08:06:06;;;;;;;39.53;16.65;;;;;;;;;;4358865;32;20194;-79
2021/08/14 08:08:32;;;;;;;36.85;16.65;;;;;;;;;;4358771;32;20163;-79
2021/08/14 08:10:57;;;;;;;46.55;18.20;;;;;;;;;;4358842;32;20611;-77
2021/08/14 08:13:22;;;;;;;34.40;15.07;;;;;;;;;;4358958;32;20217;-79
2021/08/14 08:15:47;;;;;;;36.25;15.45;;;;;;;;;;4358693;33;20228;-80
2021/08/14 08:18:13;;;;;;;36.95;15.82;;;;;;;;;;4358637;32;20190;-79
2021/08/14 08:20:38;;;;;;;37.05;14.18;;;;;;;;;;4357530;32;20720;-80
2021/08/14 08:23:07;;;;;;;35.72;13.20;;;;;;;;;;4345483;33;20175;-78
2021/08/14 08:25:32;;;;;;;36.03;13.23;;;;;;;;;;4348035;32;20131;-79
2021/08/14 08:28:01;;;;;;;30.08;12.02;;;;;;;;;;4358266;32;20241;-78
2021/08/14 08:30:27;;;;;;;25.85;11.32;;;;;;;;;;4358314;32;20269;-79
2021/08/14 08:32:53;;;;;;;27.87;12.05;;;;;;;;;;4359726;32;20229;-80
2021/08/14 08:35:18;;;;;;;32.70;12.57;;;;;;;;;;4358340;33;20644;-79
2021/08/14 08:37:43;;;;;;;30.02;12.85;;;;;;;;;;4358389;32;20179;-78
2021/08/14 08:40:09;;;;;;;29.63;11.07;;;;;;;;;;4358285;32;20170;-79
2021/08/14 08:42:35;;;;;;;25.10;11.95;;;;;;;;;;4357314;33;20175;-78
2021/08/14 08:45:01;;;;;;;29.08;12.40;;;;;;;;;;4358146;32;20601;-79
2021/08/14 08:47:28;;;;;;;35.33;12.68;;;;;;;;;;4357682;33;20211;-79
2021/08/14 08:49:54;;;;;;;32.55;13.02;;;;;;;;;;4357793;33;20247;-78
2021/08/14 08:52:20;;;;;;;27.45;11.68;;;;;;;;;;4345670;33;20593;-77
2021/08/14 08:54:49;;;;;;;34.03;11.90;;;;;;;;;;4359880;32;20163;-78
2021/08/14 08:57:15;;;;;;;24.65;11.75;;;;;;;;;;4357587;33;20487;-78
2021/08/14 08:59:40;;;;;;;32.78;12.82;;;;;;;;;;4357702;32;20626;-74
2021/08/14 09:02:19;;;;;;;31.62;11.75;;;;;;;;;;4358090;32;20181;-80
2021/08/14 09:04:44;;;;;;;32.72;12.68;;;;;;;;;;4346073;33;20183;-78
2021/08/14 09:07:25;;;;;;;29.55;12.45;;;;;;;;;;4357762;32;20163;-79
2021/08/14 09:09:56;;;;;;;33.15;11.90;;;;;;;;;;4356978;33;20290;-78
2021/08/14 09:12:28;;;;;;;26.92;11.52;;;;;;;;;;4338701;32;20182;-81
2021/08/14 09:14:53;;;;;;;28.65;11.52;;;;;;;;;;4345826;33;20632;-79
2021/08/14 09:17:25;;;;;;;32.05;11.82;;;;;;;;;;4346828;32;20202;-80
2021/08/14 09:20:03;;;;;;;27.30;10.32;;;;;;;;;;4358637;32;20201;-79
2021/08/14 09:22:28;;;;;;;23.58;10.43;;;;;;;;;;4360114;32;20214;-79
2021/08/14 09:24:53;;;;;;;27.83;12.30;;;;;;;;;;4347486;33;20159;-79
2021/08/14 09:27:18;;;;;;;28.87;10.65;;;;;;;;;;4347504;33;20163;-79
2021/08/14 09:29:46;;;;;;;29.13;10.17;;;;;;;;;;4345177;33;20624;-79
2021/08/14 09:32:13;;;;;;;31.70;10.43;;;;;;;;;;4346439;33;20262;-79
2021/08/14 09:34:40;;;;;;;26.27;9.73;;;;;;;;;;4344703;33;20466;-76
2021/08/14 09:37:10;;;;;;;26.27;10.85;;;;;;;;;;4346276;32;20190;-80
2021/08/14 09:39:49;;;;;;;26.15;10.82;;;;;;;;;;4345143;33;20171;-79
2021/08/14 09:42:14;;;;;;;26.45;10.65;;;;;;;;;;4334845;32;20163;-79
2021/08/14 09:44:39;;;;;;;34.75;13.45;;;;;;;;;;4329264;33;20497;-77
2021/08/14 09:47:09;;;;;;;31.17;13.70;;;;;;;;;;4329577;33;20222;-80
2021/08/14 09:49:52;;;;;;;27.98;12.98;;;;;;;;;;4333312;33;20200;-78
2021/08/14 09:52:18;;;;;;;32.50;11.90;;;;;;;;;;4344483;33;20171;-76
2021/08/14 09:54:46;;;;;;;31.80;12.32;;;;;;;;;;4344970;33;20167;-78
2021/08/14 09:57:12;;;;;;;34.25;12.75;;;;;;;;;;4344969;33;20209;-79
2021/08/14 09:59:38;;;;;;;34.50;12.02;;;;;;;;;;4344594;33;20205;-79
2021/08/14 10:02:06;;;;;;;29.10;11.12;;;;;;;;;;4345110;33;20159;-80
2021/08/14 10:04:40;;;;;;;25.27;9.40;;;;;;;;;;4346195;32;20166;-79
2021/08/14 10:07:07;;;;;;;34.28;10.45;;;;;;;;;;4346721;33;20157;-79
2021/08/14 10:09:34;;;;;;;27.45;9.85;;;;;;;;;;4344935;33;20245;-80
2021/08/14 10:11:59;;;;;;;27.58;10.68;;;;;;;;;;4345217;33;20225;-79
2021/08/14 10:14:25;;;;;;;25.60;9.93;;;;;;;;;;4345007;32;20167;-80
2021/08/14 10:16:50;;;;;;;25.80;9.32;;;;;;;;;;4332631;33;20155;-78
2021/08/14 10:19:18;;;;;;;21.75;7.45;;;;;;;;;;4333035;33;20202;-79
2021/08/14 10:21:49;;;;;;;23.87;8.60;;;;;;;;;;4345810;33;20170;-78
2021/08/14 10:24:18;;;;;;;21.17;7.50;;;;;;;;;;4337324;33;20202;-79
2021/08/14 10:26:43;;;;;;;21.15;7.15;;;;;;;;;;4356506;32;20164;-80
2021/08/14 10:29:28;;;;;;;18.58;6.47;;;;;;;;;;4356471;32;20186;-80
2021/08/14 10:31:54;;;;;;;18.52;6.50;;;;;;;;;;4356404;32;20251;-79
2021/08/14 10:34:19;;;;;;;20.40;6.35;;;;;;;;;;4356638;32;20179;-79
2021/08/14 10:36:46;;;;;;;23.75;7.60;;;;;;;;;;4356894;32;20167;-79
2021/08/14 10:39:16;;;;;;;13.23;4.97;;;;;;;;;;4356290;33;20163;-79
2021/08/14 10:41:43;;;;;;;16.40;5.65;;;;;;;;;;4356609;32;20238;-76
2021/08/14 10:44:09;;;;;;;15.50;5.93;;;;;;;;;;4345631;33;20444;-78
2021/08/14 10:46:34;;;;;;;19.60;6.12;;;;;;;;;;4344585;33;20155;-80
2021/08/14 10:49:03;;;;;;;18.48;6.10;;;;;;;;;;4345495;32;20541;-79
2021/08/14 10:51:47;;;;;;;14.00;5.18;;;;;;;;;;4343322;33;20176;-79
2021/08/14 10:54:33;;;;;;;11.70;4.43;;;;;;;;;;4344022;33;20199;-79
2021/08/14 10:57:08;;;;;;;12.43;4.12;;;;;;;;;;4341999;33;20234;-80
2021/08/14 10:59:40;;;;;;;14.75;4.18;;;;;;;;;;4341794;33;20246;-80
2021/08/14 11:02:08;;;;;;;14.77;4.50;;;;;;;;;;4352778;33;20565;-80
2021/08/14 11:04:46;;;;;;;8.77;3.42;;;;;;;;;;4328706;33;20157;-80
2021/08/14 11:07:20;;;;;;;11.18;3.83;;;;;;;;;;4329783;33;20156;-80
2021/08/14 11:09:46;;;;;;;11.20;3.17;;;;;;;;;;4329165;33;20230;-79
2021/08/14 11:12:29;;;;;;;11.57;3.42;;;;;;;;;;4329566;33;20501;-79
2021/08/14 11:15:12;;;;;;;10.73;3.78;;;;;;;;;;4341950;33;20186;-79
2021/08/14 11:17:37;;;;;;;10.57;3.72;;;;;;;;;;4329432;33;20230;-79
2021/08/14 11:20:03;;;;;;;12.65;3.62;;;;;;;;;;4329678;33;20156;-78
2021/08/14 11:22:47;;;;;;;11.65;3.70;;;;;;;;;;4329441;33;20547;-79
2021/08/14 11:25:22;;;;;;;7.97;3.33;;;;;;;;;;4329415;33;20191;-78
2021/08/14 11:27:55;;;;;;;10.13;2.90;;;;;;;;;;4329683;33;20201;-76
2021/08/14 11:30:23;;;;;;;7.80;3.33;;;;;;;;;;4330615;33;20568;-80
2021/08/14 11:32:48;;;;;;;11.40;3.92;;;;;;;;;;4328682;33;20190;-79
2021/08/14 11:35:16;;;;;;;12.05;3.83;;;;;;;;;;4330891;33;20264;-77
2021/08/14 11:37:49;;;;;;;10.13;3.92;;;;;;;;;;4329196;33;20160;-79
2021/08/14 11:40:15;;;;;;;8.55;3.55;;;;;;;;;;4329183;33;20156;-78
2021/08/14 11:42:40;;;;;;;7.62;3.15;;;;;;;;;;4354586;33;20189;-78
2021/08/14 11:45:05;;;;;;;8.18;3.33;;;;;;;;;;4343979;33;20164;-80
2021/08/14 11:47:38;;;;;;;8.63;3.87;;;;;;;;;;4344816;33;20461;-79
2021/08/14 11:50:08;;;;;;;9.75;3.90;;;;;;;;;;4344220;33;20454;-80
2021/08/14 11:52:36;;;;;;;10.10;3.03;;;;;;;;;;4343724;33;20175;-79
2021/08/14 11:55:10;;;;;;;7.35;3.50;;;;;;;;;;4343644;33;20274;-81
2021/08/14 11:57:37;;;;;;;7.72;3.10;;;;;;;;;;4343702;33;20178;-79
2021/08/14 12:00:17;;;;;;;7.40;3.28;;;;;;;;;;4345485;33;20135;-80
2021/08/14 12:02:43;;;;;;;7.70;3.10;;;;;;;;;;4344830;33;20552;-79
2021/08/14 12:05:08;;;;;;;6.85;2.67;;;;;;;;;;4343026;33;20164;-79
2021/08/14 12:07:33;;;;;;;7.22;3.08;;;;;;;;;;4342613;33;20163;-80
2021/08/14 12:10:02;;;;;;;6.15;2.55;;;;;;;;;;4343664;33;20163;-78
2021/08/14 12:12:29;;;;;;;8.43;3.00;;;;;;;;;;4343369;33;20220;-80
2021/08/14 12:15:00;;;;;;;5.43;2.65;;;;;;;;;;4343603;33;20165;-76
2021/08/14 12:17:27;;;;;;;5.25;2.45;;;;;;;;;;4345661;33;20144;-78
2021/08/14 12:19:54;;;;;;;6.28;2.92;;;;;;;;;;4338014;33;20181;-78
2021/08/14 12:22:32;;;;;;;8.50;3.03;;;;;;;;;;4333390;33;20217;-77
2021/08/14 12:25:26;;;;;;;6.18;2.70;;;;;;;;;;4331293;33;20285;-77
2021/08/14 12:28:11;;;;;;;8.65;2.78;;;;;;;;;;4334522;33;20218;-80
2021/08/14 12:30:41;;;;;;;7.12;2.47;;;;;;;;;;4358186;32;20190;-82
2021/08/14 12:33:21;;;;;;;7.35;2.80;;;;;;;;;;4345829;33;20214;-80
2021/08/14 12:35:53;;;;;;;6.43;2.60;;;;;;;;;;4346706;33;20170;-74
2021/08/14 12:38:21;;;;;;;7.28;2.97;;;;;;;;;;4347438;33;20205;-79
2021/08/14 12:40:46;;;;;;;4.97;2.33;;;;;;;;;;4358033;33;20177;-78
2021/08/14 12:43:21;;;;;;;4.53;2.47;;;;;;;;;;4358836;32;20299;-80
2021/08/14 12:45:47;;;;;;;6.57;2.70;;;;;;;;;;4346172;33;20683;-78
2021/08/14 12:48:12;;;;;;;5.85;2.40;;;;;;;;;;4338120;33;20277;-78
2021/08/14 12:50:41;;;;;;;4.95;2.20;;;;;;;;;;4331239;33;20291;-79
2021/08/14 12:53:11;;;;;;;7.62;2.42;;;;;;;;;;4330910;33;20183;-79
2021/08/14 12:55:36;;;;;;;7.80;2.50;;;;;;;;;;4331135;33;20215;-78
2021/08/14 12:58:03;;;;;;;6.68;2.50;;;;;;;;;;4330973;33;20180;-79
2021/08/14 13:00:29;;;;;;;4.70;2.35;;;;;;;;;;4331077;33;20213;-78
2021/08/14 13:02:54;;;;;;;5.75;2.85;;;;;;;;;;4330731;33;20164;-74
2021/08/14 13:05:19;;;;;;;5.12;2.70;;;;;;;;;;4343834;33;20616;-78
2021/08/14 13:07:49;;;;;;;6.45;2.72;;;;;;;;;;4330871;33;20218;-79
2021/08/14 13:10:15;;;;;;;6.72;2.70;;;;;;;;;;4330858;33;20601;-79
2021/08/14 13:12:59;;;;;;;6.68;2.42;;;;;;;;;;4332258;33;20608;-79
2021/08/14 13:15:25;;;;;;;6.78;2.45;;;;;;;;;;4332246;33;20577;-76
2021/08/14 13:17:51;;;;;;;4.15;2.50;;;;;;;;;;4329680;33;20593;-79
2021/08/14 13:20:17;;;;;;;5.20;2.37;;;;;;;;;;4331200;33;20249;-78
2021/08/14 13:22:43;;;;;;;6.57;2.80;;;;;;;;;;4330140;33;20616;-77
2021/08/14 13:25:09;;;;;;;5.25;2.53;;;;;;;;;;4343332;33;20477;-79
2021/08/14 13:27:34;;;;;;;3.80;2.00;;;;;;;;;;4334995;33;20178;-80
2021/08/14 13:30:00;;;;;;;4.25;2.10;;;;;;;;;;4346411;33;20158;-74
2021/08/14 13:32:26;;;;;;;7.00;2.67;;;;;;;;;;4345227;33;20179;-78
2021/08/14 13:34:51;;;;;;;5.95;2.30;;;;;;;;;;4357894;32;20174;-77
2021/08/14 13:37:16;;;;;;;7.60;2.75;;;;;;;;;;4345510;33;20191;-78
2021/08/14 13:39:42;;;;;;;8.15;2.45;;;;;;;;;;4345405;33;20221;-78
2021/08/14 13:42:07;;;;;;;5.60;2.80;;;;;;;;;;4344921;33;20584;-78
2021/08/14 13:44:32;;;;;;;4.03;2.17;;;;;;;;;;4344925;33;20159;-78
2021/08/14 13:46:58;;;;;;;3.60;1.90;;;;;;;;;;4345420;33;20186;-77
2021/08/14 13:49:23;;;;;;;6.15;2.35;;;;;;;;;;4345300;33;20588;-75
2021/08/14 13:51:48;;;;;;;5.75;2.42;;;;;;;;;;4357405;32;20274;-78
2021/08/14 13:54:16;;;;;;;5.57;2.60;;;;;;;;;;4345031;33;20159;-73
2021/08/14 13:56:41;;;;;;;4.22;2.47;;;;;;;;;;4346631;33;20203;-78
2021/08/14 13:59:07;;;;;;;5.28;2.85;;;;;;;;;;4344868;33;20198;-78
2021/08/14 14:01:32;;;;;;;6.57;2.85;;;;;;;;;;4345209;33;20507;-78
2021/08/14 14:03:57;;;;;;;5.47;2.70;;;;;;;;;;4357181;32;20311;-79
2021/08/14 14:06:23;;;;;;;4.40;2.83;;;;;;;;;;4336337;33;20315;-78
2021/08/14 14:08:48;;;;;;;6.30;3.30;;;;;;;;;;4329988;33;20238;-79
2021/08/14 14:11:14;;;;;;;5.18;3.10;;;;;;;;;;4329849;33;20164;-78
2021/08/14 14:13:39;;;;;;;5.80;3.22;;;;;;;;;;4330410;33;20164;-78
2021/08/14 14:16:04;;;;;;;5.87;3.20;;;;;;;;;;4330356;33;20164;-79
2021/08/14 14:18:29;;;;;;;5.75;3.50;;;;;;;;;;4331122;33;20543;-79
2021/08/14 14:20:58;;;;;;;5.03;3.07;;;;;;;;;;4330557;33;20447;-77
2021/08/14 14:23:23;;;;;;;6.90;3.10;;;;;;;;;;4331576;33;20260;-76
2021/08/14 14:25:49;;;;;;;7.10;3.53;;;;;;;;;;4331622;33;20129;-78
2021/08/14 14:28:14;;;;;;;12.18;7.93;;;;;;;;;;4342195;33;20608;-77
2021/08/14 14:30:43;;;;;;;6.07;3.28;;;;;;;;;;4329950;33;20186;-80